createdAt,value
2022-09-23T00:01:22.455Z,8.52
2022-09-23T00:03:51.315Z,6.97
2022-09-23T00:06:21.035Z,8.45
2022-09-23T00:08:52.024Z,7.53
2022-09-23T00:11:28.220Z,6.65
2022-09-23T00:13:59.703Z,7.18
2022-09-23T00:16:30.760Z,7.15
2022-09-23T00:18:58.268Z,7.10
2022-09-23T00:21:25.604Z,7.35
2022-09-23T00:23:53.378Z,7.40
2022-09-23T00:26:22.268Z,7.65
2022-09-23T00:28:49.589Z,7.05
2022-09-23T00:31:26.137Z,7.80
2022-09-23T00:33:59.711Z,7.70
2022-09-23T00:36:28.915Z,7.47
2022-09-23T00:38:56.892Z,7.68
2022-09-23T00:41:24.959Z,7.65
2022-09-23T00:43:59.112Z,8.00
2022-09-23T00:46:37.259Z,7.35
2022-09-23T00:49:18.957Z,6.85
2022-09-23T00:51:54.697Z,8.52
2022-09-23T00:54:24.952Z,8.38
2022-09-23T00:56:52.637Z,7.63
2022-09-23T00:59:22.446Z,8.23
2022-09-23T01:01:55.043Z,7.63
2022-09-23T01:04:25.787Z,6.65
2022-09-23T01:06:53.447Z,7.80
2022-09-23T01:09:23.025Z,7.18
2022-09-23T01:12:10.600Z,7.40
2022-09-23T01:14:46.093Z,7.75
2022-09-23T01:17:34.526Z,7.63
2022-09-23T01:20:12.770Z,8.15
2022-09-23T01:26:22.523Z,7.05
2022-09-23T01:29:18.890Z,8.20
2022-09-23T01:31:58.620Z,7.63
2022-09-23T01:34:59.180Z,8.15
2022-09-23T01:37:56.787Z,7.13
2022-09-23T01:40:39.018Z,8.15
2022-09-23T01:43:14.472Z,7.70
2022-09-23T01:45:48.061Z,8.10
2022-09-23T01:48:34.308Z,7.07
2022-09-23T01:51:29.778Z,7.10
2022-09-23T01:54:20.121Z,7.97
2022-09-23T01:56:58.910Z,7.55
2022-09-23T01:59:34.630Z,8.20
2022-09-23T02:02:42.309Z,6.25
2022-09-23T02:05:29.062Z,6.32
2022-09-23T02:08:03.444Z,6.90
2022-09-23T02:10:33.767Z,7.15
2022-09-23T02:13:08.953Z,6.85
2022-09-23T02:15:45.093Z,6.82
2022-09-23T02:18:19.878Z,6.78
2022-09-23T02:20:49.353Z,6.03
2022-09-23T02:23:27.437Z,6.90
2022-09-23T02:25:57.693Z,7.03
2022-09-23T02:28:45.222Z,6.57
2022-09-23T02:31:50.188Z,6.38
2022-09-23T02:34:38.973Z,6.18
2022-09-23T02:37:06.672Z,6.63
2022-09-23T02:39:51.525Z,7.07
2022-09-23T02:42:23.548Z,6.70
2022-09-23T02:44:51.325Z,6.47
2022-09-23T02:47:26.951Z,6.25
2022-09-23T02:49:56.498Z,6.43
2022-09-23T02:52:25.151Z,6.28
2022-09-23T02:54:52.932Z,6.43
2022-09-23T02:57:20.304Z,5.97
2022-09-23T02:59:47.632Z,5.65
2022-09-23T03:02:40.150Z,5.90
2022-09-23T03:05:33.616Z,5.32
2022-09-23T03:08:32.823Z,5.35
2022-09-23T03:11:17.880Z,5.75
2022-09-23T03:14:17.155Z,5.38
2022-09-23T03:16:57.301Z,6.18
2022-09-23T03:19:41.701Z,5.75
2022-09-23T03:22:14.434Z,4.85
2022-09-23T03:26:05.087Z,6.18
2022-09-23T03:28:40.251Z,6.18
2022-09-23T03:31:08.646Z,6.13
2022-09-23T03:33:40.269Z,5.35
2022-09-23T03:36:35.234Z,5.63
2022-09-23T03:39:20.886Z,5.63
2022-09-23T03:41:55.623Z,5.57
2022-09-23T03:44:25.394Z,6.22
2022-09-23T03:46:59.008Z,6.07
2022-09-23T03:49:31.447Z,6.07
2022-09-23T03:51:59.618Z,5.72
2022-09-23T03:54:31.274Z,6.00
2022-09-23T03:59:27.689Z,6.20
2022-09-23T04:01:55.856Z,5.18
2022-09-23T04:04:23.191Z,6.18
2022-09-23T04:06:50.779Z,6.13
2022-09-23T04:09:18.161Z,6.40
2022-09-23T04:11:45.533Z,6.53
2022-09-23T04:14:13.705Z,6.38
2022-09-23T04:16:43.768Z,7.22
2022-09-23T04:19:12.105Z,5.85
2022-09-23T04:21:40.810Z,6.13
2022-09-23T04:24:08.625Z,6.18
2022-09-23T04:27:01.588Z,6.80
2022-09-23T04:29:30.203Z,6.47
2022-09-23T04:31:58.064Z,6.85
2022-09-23T04:34:25.754Z,6.53
2022-09-23T04:36:56.352Z,6.57
2022-09-23T04:39:26.896Z,6.47
2022-09-23T04:41:56.502Z,6.07
2022-09-23T04:44:26.076Z,5.45
2022-09-23T04:46:57.773Z,5.28
2022-09-23T04:49:26.928Z,6.13
2022-09-23T04:51:54.622Z,4.85
2022-09-23T04:54:22.393Z,5.15
2022-09-23T04:56:52.809Z,4.82
2022-09-23T04:59:20.177Z,5.07
2022-09-23T05:01:47.771Z,5.70
2022-09-23T05:04:16.312Z,5.32
2022-09-23T05:06:48.347Z,5.22
2022-09-23T05:09:22.021Z,4.40
2022-09-23T05:11:51.574Z,4.13
2022-09-23T05:14:54.439Z,3.72
2022-09-23T05:18:23.972Z,4.45
2022-09-23T05:21:39.205Z,4.03
2022-09-23T05:24:12.026Z,4.47
2022-09-23T05:26:40.223Z,3.97
2022-09-23T05:29:07.986Z,4.18
2022-09-23T05:31:37.142Z,3.58
2022-09-23T05:34:06.389Z,3.50
2022-09-23T05:36:38.997Z,4.18
2022-09-23T05:39:07.944Z,3.42
2022-09-23T05:41:36.190Z,3.60
2022-09-23T05:44:04.391Z,3.97
2022-09-23T05:46:33.367Z,5.30
2022-09-23T05:49:03.256Z,3.88
2022-09-23T05:51:32.772Z,3.50
2022-09-23T05:54:03.100Z,4.55
2022-09-23T05:56:31.858Z,3.55
2022-09-23T05:59:00.724Z,4.13
2022-09-23T06:01:34.308Z,4.40
2022-09-23T06:04:06.452Z,4.15
2022-09-23T06:06:37.281Z,9.40
2022-09-23T06:09:05.471Z,3.80
2022-09-23T06:11:35.283Z,4.00
2022-09-23T06:14:03.301Z,3.30
2022-09-23T06:16:35.106Z,4.05
2022-09-23T06:19:06.741Z,4.25
2022-09-23T06:21:36.151Z,4.70
2022-09-23T06:24:03.972Z,8.55
2022-09-23T06:26:35.410Z,8.25
2022-09-23T06:29:04.060Z,4.50
2022-09-23T06:31:31.516Z,5.45
2022-09-23T06:34:09.358Z,5.25
2022-09-23T06:36:43.708Z,5.38
2022-09-23T06:39:12.282Z,4.65
2022-09-23T06:41:39.599Z,4.90
2022-09-23T06:44:12.680Z,7.53
2022-09-23T06:46:44.746Z,9.55
2022-09-23T06:49:13.912Z,5.28
2022-09-23T06:51:41.676Z,5.30
2022-09-23T06:54:09.029Z,4.10
2022-09-23T06:56:39.536Z,6.60
2022-09-23T06:59:11.178Z,5.35
2022-09-23T07:01:39.009Z,5.60
2022-09-23T07:04:08.071Z,5.20
2022-09-23T07:06:36.325Z,4.78
2022-09-23T07:09:06.070Z,4.70
2022-09-23T07:11:33.607Z,5.90
2022-09-23T07:14:00.843Z,5.05
2022-09-23T07:16:28.213Z,6.35
2022-09-23T07:18:55.906Z,5.25
2022-09-23T07:21:23.354Z,5.80
2022-09-23T07:23:52.092Z,5.80
2022-09-23T07:26:22.991Z,5.13
2022-09-23T07:28:57.129Z,4.97
2022-09-23T07:31:37.740Z,5.25
2022-09-23T07:34:08.839Z,5.38
2022-09-23T07:36:40.848Z,5.60
2022-09-23T07:39:11.365Z,4.90
2022-09-23T07:41:39.407Z,4.85
2022-09-23T07:44:06.702Z,4.35
2022-09-23T07:46:36.631Z,5.28
2022-09-23T07:49:05.654Z,5.03
2022-09-23T07:51:36.773Z,4.75
2022-09-23T07:54:08.157Z,5.38
2022-09-23T07:56:37.279Z,4.88
2022-09-23T07:59:09.137Z,4.93
2022-09-23T08:01:39.129Z,5.35
2022-09-23T08:04:14.514Z,5.25
2022-09-23T08:06:51.384Z,5.22
2022-09-23T08:09:21.233Z,5.30
2022-09-23T08:11:49.634Z,5.22
2022-09-23T08:14:18.644Z,5.00
2022-09-23T08:16:47.359Z,5.45
2022-09-23T08:19:15.336Z,5.78
2022-09-23T08:21:43.119Z,5.28
2022-09-23T08:24:14.725Z,6.18
2022-09-23T08:29:14.122Z,5.28
2022-09-23T08:31:41.811Z,5.90
2022-09-23T08:34:09.387Z,5.18
2022-09-23T08:36:37.564Z,5.30
2022-09-23T08:39:05.893Z,4.82
2022-09-23T08:41:56.096Z,5.35
2022-09-23T08:44:42.547Z,5.28
2022-09-23T08:47:13.012Z,5.20
2022-09-23T08:49:48.904Z,5.70
2022-09-23T08:52:49.715Z,5.22
2022-09-23T08:55:21.576Z,5.28
2022-09-23T08:58:24.452Z,4.82
2022-09-23T09:01:03.236Z,4.38
2022-09-23T09:03:45.904Z,6.00
2022-09-23T09:06:31.389Z,4.90
2022-09-23T09:09:02.360Z,4.32
2022-09-23T09:11:36.316Z,4.30
2022-09-23T09:14:34.183Z,4.05
2022-09-23T09:17:14.043Z,4.65
2022-09-23T09:19:52.444Z,3.90
2022-09-23T09:22:30.410Z,4.43
2022-09-23T09:25:05.398Z,5.03
2022-09-23T09:27:39.423Z,5.57
2022-09-23T09:30:12.110Z,3.92
2022-09-23T09:32:47.533Z,4.45
2022-09-23T09:35:27.199Z,4.57
2022-09-23T09:37:55.170Z,4.82
2022-09-23T09:40:22.494Z,4.05
2022-09-23T09:42:51.050Z,4.88
2022-09-23T09:45:27.536Z,4.50
2022-09-23T09:48:12.494Z,4.72
2022-09-23T09:50:52.327Z,3.45
2022-09-23T09:53:20.453Z,4.40
2022-09-23T09:56:04.618Z,4.10
2022-09-23T09:59:13.963Z,4.28
2022-09-23T10:01:41.435Z,4.40
2022-09-23T10:04:35.793Z,4.18
2022-09-23T10:07:14.432Z,3.55
2022-09-23T10:09:50.798Z,4.25
2022-09-23T10:12:20.602Z,4.15
2022-09-23T10:14:53.527Z,4.18
2022-09-23T10:17:22.665Z,4.43
2022-09-23T10:19:58.456Z,3.75
2022-09-23T10:22:30.207Z,4.20
2022-09-23T10:25:07.658Z,4.13
2022-09-23T10:27:36.498Z,5.80
2022-09-23T10:30:23.216Z,4.40
2022-09-23T10:32:53.299Z,4.20
2022-09-23T10:35:25.870Z,5.85
2022-09-23T10:37:55.306Z,4.53
2022-09-23T10:40:59.072Z,4.18
2022-09-23T10:44:17.357Z,4.35
2022-09-23T10:47:04.723Z,4.13
2022-09-23T10:50:03.904Z,4.35
2022-09-23T10:52:44.006Z,4.20
2022-09-23T10:55:45.611Z,5.15
2022-09-23T10:58:19.585Z,5.45
2022-09-23T11:01:04.607Z,4.65
2022-09-23T11:03:44.989Z,4.28
2022-09-23T11:06:40.470Z,4.20
2022-09-23T11:09:32.549Z,4.72
2022-09-23T11:12:17.885Z,5.00
2022-09-23T11:15:03.899Z,4.88
2022-09-23T11:18:08.561Z,4.78
2022-09-23T11:20:48.398Z,4.53
2022-09-23T11:23:18.999Z,5.20
2022-09-23T11:26:02.130Z,4.68
2022-09-23T11:28:50.844Z,5.00
2022-09-23T11:31:47.536Z,4.93
2022-09-23T11:34:29.127Z,4.80
2022-09-23T11:37:05.764Z,4.82
2022-09-23T11:39:42.676Z,4.20
2022-09-23T11:42:23.663Z,4.13
2022-09-23T11:45:08.713Z,4.00
2022-09-23T11:47:46.855Z,3.60
2022-09-23T11:52:49.312Z,6.03
2022-09-23T11:55:23.425Z,5.50
2022-09-23T11:58:23.147Z,4.82
2022-09-23T12:01:33.222Z,4.28
2022-09-23T12:04:31.488Z,4.25
2022-09-23T12:07:24.196Z,4.88
2022-09-23T12:10:03.771Z,4.05
2022-09-23T12:12:56.222Z,3.95
2022-09-23T12:15:49.077Z,3.50
2022-09-23T12:18:34.736Z,14.88
2022-09-23T12:21:39.147Z,8.95
2022-09-23T12:24:36.731Z,4.35
2022-09-23T12:27:11.168Z,3.38
2022-09-23T12:29:41.703Z,3.47
2022-09-23T12:32:18.510Z,3.17
2022-09-23T12:34:52.253Z,3.60
2022-09-23T12:37:27.013Z,3.20
2022-09-23T12:39:59.095Z,3.92
2022-09-23T12:42:30.921Z,3.30
2022-09-23T12:45:38.091Z,4.05
2022-09-23T12:48:27.811Z,3.95
2022-09-23T12:51:04.195Z,3.72
2022-09-23T12:53:35.595Z,3.90
2022-09-23T12:58:42.892Z,4.47
2022-09-23T13:01:19.418Z,3.70
2022-09-23T13:04:23.791Z,4.53
2022-09-23T13:07:25.990Z,4.22
2022-09-23T13:10:06.006Z,4.65
2022-09-23T13:12:39.324Z,4.10
2022-09-23T13:15:18.369Z,4.40
2022-09-23T13:17:45.923Z,4.07
2022-09-23T13:20:19.436Z,4.30
2022-09-23T13:22:49.579Z,4.38
2022-09-23T13:25:22.437Z,3.92
2022-09-23T13:27:54.138Z,4.20
2022-09-23T13:30:26.415Z,4.57
2022-09-23T13:33:22.034Z,4.65
2022-09-23T13:35:54.360Z,4.18
2022-09-23T13:38:28.962Z,4.57
2022-09-23T13:41:01.985Z,4.57
2022-09-23T13:43:36.532Z,4.40
2022-09-23T13:46:18.550Z,4.50
2022-09-23T13:54:29.444Z,5.18
2022-09-23T13:56:59.370Z,5.50
2022-09-23T13:59:28.016Z,5.15
2022-09-23T14:02:13.616Z,5.25
2022-09-23T14:04:41.343Z,5.65
2022-09-23T14:07:11.323Z,6.13
2022-09-23T14:09:43.523Z,7.28
2022-09-23T14:12:14.453Z,5.68
2022-09-23T14:14:43.663Z,5.40
2022-09-23T14:17:18.659Z,4.60
2022-09-23T14:19:47.167Z,5.15
2022-09-23T14:22:25.230Z,5.03
2022-09-23T14:24:54.211Z,4.85
2022-09-23T14:27:30.860Z,5.25
2022-09-23T14:29:59.202Z,4.60
2022-09-23T14:32:29.036Z,6.50
2022-09-23T14:35:05.502Z,4.95
2022-09-23T14:37:57.636Z,6.20
2022-09-23T14:40:53.115Z,5.93
2022-09-23T14:43:28.572Z,5.53
2022-09-23T14:45:58.895Z,5.85
2022-09-23T14:48:31.700Z,5.70
2022-09-23T14:51:01.881Z,5.15
2022-09-23T14:53:46.589Z,5.20
2022-09-23T14:56:22.319Z,6.60
2022-09-23T14:58:56.956Z,4.22
2022-09-23T15:01:33.458Z,6.72
2022-09-23T15:04:17.733Z,4.53
2022-09-23T15:06:58.099Z,4.80
2022-09-23T15:09:41.006Z,5.30
2022-09-23T15:12:16.140Z,3.97
2022-09-23T15:14:50.888Z,4.53
2022-09-23T15:17:33.338Z,5.05
2022-09-23T15:20:08.633Z,4.70
2022-09-23T15:22:47.599Z,4.38
2022-09-23T15:25:33.940Z,4.45
2022-09-23T15:28:11.037Z,4.40
2022-09-23T15:30:39.795Z,4.65
2022-09-23T15:33:09.443Z,5.93
2022-09-23T15:35:46.600Z,4.63
2022-09-23T15:38:14.075Z,4.65
2022-09-23T15:40:41.622Z,5.13
2022-09-23T15:43:21.917Z,4.30
2022-09-23T15:45:54.470Z,4.30
2022-09-23T15:48:26.142Z,4.82
2022-09-23T15:50:55.981Z,6.20
2022-09-23T15:53:28.202Z,5.63
2022-09-23T15:55:59.337Z,5.03
2022-09-23T15:58:35.798Z,4.90
2022-09-23T16:01:47.355Z,4.90
2022-09-23T16:08:17.109Z,4.90
2022-09-23T16:11:50.031Z,4.65
2022-09-23T16:14:41.360Z,4.38
2022-09-23T16:17:20.509Z,4.80
2022-09-23T16:20:03.150Z,5.05
2022-09-23T16:35:23.259Z,4.75
2022-09-23T16:38:22.652Z,3.80
2022-09-23T16:40:56.263Z,4.43
2022-09-23T16:43:36.734Z,6.13
2022-09-23T16:46:09.210Z,4.30
2022-09-23T16:48:44.996Z,4.75
2022-09-23T16:51:38.651Z,4.45
2022-09-23T16:54:12.210Z,4.63
2022-09-23T16:56:45.385Z,5.15
2022-09-23T16:59:16.750Z,4.75
2022-09-23T17:02:02.730Z,4.75
2022-09-23T17:04:30.958Z,4.35
2022-09-23T17:06:58.675Z,3.88
2022-09-23T17:09:29.530Z,4.00
2022-09-23T17:12:12.899Z,4.22
2022-09-23T17:14:40.079Z,3.75
2022-09-23T17:17:07.548Z,3.60
2022-09-23T17:19:35.831Z,4.10
2022-09-23T17:22:03.237Z,3.72
2022-09-23T17:24:31.109Z,3.90
2022-09-23T17:26:58.461Z,4.07
2022-09-23T17:29:27.058Z,3.75
2022-09-23T17:31:54.507Z,3.90
2022-09-23T17:34:22.185Z,4.07
2022-09-23T17:36:50.711Z,4.35
2022-09-23T17:39:17.839Z,3.97
2022-09-23T17:41:45.622Z,4.03
2022-09-23T17:44:14.398Z,4.22
2022-09-23T17:47:06.372Z,6.03
2022-09-23T17:49:35.662Z,4.05
2022-09-23T17:52:06.994Z,4.00
2022-09-23T17:54:38.715Z,3.95
2022-09-23T17:57:05.971Z,4.40
2022-09-23T17:59:33.841Z,4.45
2022-09-23T18:02:01.315Z,4.50
2022-09-23T18:04:33.009Z,4.00
2022-09-23T18:07:01.392Z,4.15
2022-09-23T18:09:28.819Z,4.10
2022-09-23T18:11:56.643Z,5.60
2022-09-23T18:14:24.245Z,3.92
2022-09-23T18:16:53.970Z,4.32
2022-09-23T18:19:23.411Z,3.85
2022-09-23T18:21:54.820Z,3.55
2022-09-23T18:24:38.169Z,4.07
2022-09-23T18:27:07.901Z,3.92
2022-09-23T18:29:35.821Z,3.50
2022-09-23T18:32:04.025Z,3.60
2022-09-23T18:34:34.395Z,3.78
2022-09-23T18:37:02.070Z,4.03
2022-09-23T18:39:29.342Z,4.75
2022-09-23T18:41:56.731Z,4.07
2022-09-23T18:44:25.637Z,4.00
2022-09-23T18:46:54.208Z,4.50
2022-09-23T18:49:39.853Z,4.95
2022-09-23T18:52:07.420Z,3.72
2022-09-23T18:54:34.663Z,4.25
2022-09-23T18:57:02.000Z,3.97
2022-09-23T18:59:33.646Z,4.75
2022-09-23T19:02:01.331Z,4.10
2022-09-23T19:04:29.174Z,3.95
2022-09-23T19:06:58.090Z,4.80
2022-09-23T19:09:25.605Z,4.70
2022-09-23T19:11:53.568Z,4.40
2022-09-23T19:14:21.007Z,4.53
2022-09-23T19:16:51.728Z,5.10
2022-09-23T19:19:19.011Z,4.97
2022-09-23T19:21:46.249Z,4.88
2022-09-23T19:24:16.264Z,5.50
2022-09-23T19:26:45.149Z,4.65
2022-09-23T19:29:19.732Z,4.22
2022-09-23T19:31:46.921Z,5.20
2022-09-23T19:34:19.631Z,5.15
2022-09-23T19:36:47.879Z,4.65
2022-09-23T19:39:21.230Z,4.80
2022-09-23T19:41:50.649Z,5.25
2022-09-23T19:44:20.260Z,5.15
2022-09-23T19:46:55.125Z,5.70
2022-09-23T19:49:24.828Z,4.65
2022-09-23T19:51:55.781Z,4.40
2022-09-23T19:54:24.743Z,5.05
2022-09-23T19:56:52.067Z,4.60
2022-09-23T19:59:19.934Z,4.78
2022-09-23T20:01:48.493Z,5.70
2022-09-23T20:04:17.160Z,5.10
2022-09-23T20:06:46.280Z,5.50
2022-09-23T20:09:13.940Z,4.88
2022-09-23T20:11:43.284Z,5.35
2022-09-23T20:14:10.687Z,5.60
2022-09-23T20:16:38.124Z,5.47
2022-09-23T20:19:06.064Z,5.13
2022-09-23T20:21:35.548Z,4.65
2022-09-23T20:24:07.798Z,5.50
2022-09-23T20:26:53.548Z,5.30
2022-09-23T20:29:20.734Z,5.47
2022-09-23T20:31:48.548Z,4.80
2022-09-23T20:34:15.936Z,4.88
2022-09-23T20:37:41.344Z,6.00
2022-09-23T20:40:12.177Z,5.28
2022-09-23T20:42:42.364Z,4.90
2022-09-23T20:45:10.163Z,4.75
2022-09-23T20:47:46.562Z,5.10
2022-09-23T20:50:17.236Z,5.28
2022-09-23T20:52:44.751Z,4.57
2022-09-23T20:55:15.751Z,4.85
2022-09-23T20:57:44.562Z,5.20
2022-09-23T21:00:14.122Z,5.07
2022-09-23T21:02:43.851Z,5.28
2022-09-23T21:05:11.444Z,5.10
2022-09-23T21:07:42.473Z,5.60
2022-09-23T21:10:10.827Z,5.35
2022-09-23T21:12:38.204Z,5.40
2022-09-23T21:15:52.426Z,4.82
2022-09-23T21:19:05.181Z,5.45
2022-09-23T21:22:54.849Z,5.28
2022-09-23T21:25:30.505Z,5.30
2022-09-23T21:28:02.023Z,6.07
2022-09-23T21:30:29.928Z,5.70
2022-09-23T21:32:57.706Z,5.20
2022-09-23T21:35:25.328Z,4.97
2022-09-23T21:37:52.581Z,6.07
2022-09-23T21:40:38.276Z,6.45
2022-09-23T21:43:06.027Z,5.68
2022-09-23T21:45:36.562Z,6.38
2022-09-23T21:48:05.268Z,6.32
2022-09-23T21:50:32.561Z,6.45
2022-09-23T21:53:02.319Z,6.28
2022-09-23T21:55:33.032Z,6.10
2022-09-23T21:58:00.618Z,5.80
2022-09-23T22:00:30.380Z,6.85
2022-09-23T22:02:57.798Z,6.70
2022-09-23T22:05:25.503Z,7.20
2022-09-23T22:07:54.499Z,7.22
2022-09-23T22:10:22.022Z,6.97
2022-09-23T22:12:52.120Z,7.53
2022-09-23T22:15:19.938Z,7.28
2022-09-23T22:17:50.172Z,6.75
2022-09-23T22:20:17.355Z,7.28
2022-09-23T22:22:44.769Z,6.95
2022-09-23T22:25:17.383Z,7.32
2022-09-23T22:28:04.500Z,6.93
2022-09-23T22:30:50.120Z,7.05
2022-09-23T22:33:17.404Z,6.53
2022-09-23T22:35:48.323Z,7.90
2022-09-23T22:38:15.543Z,7.07
2022-09-23T22:40:43.738Z,7.82
2022-09-23T22:43:11.180Z,7.20
2022-09-23T22:45:40.014Z,7.82
2022-09-23T22:48:07.169Z,8.18
2022-09-23T22:50:34.604Z,7.85
2022-09-23T22:53:02.157Z,8.80
2022-09-23T22:55:34.469Z,7.53
2022-09-23T22:58:15.546Z,7.43
2022-09-23T23:00:49.146Z,7.18
2022-09-23T23:03:19.576Z,7.82
2022-09-23T23:05:51.834Z,8.27
2022-09-23T23:08:19.193Z,8.50
2022-09-23T23:10:46.298Z,7.55
2022-09-23T23:13:14.473Z,8.20
2022-09-23T23:15:43.209Z,8.23
2022-09-23T23:18:10.684Z,8.05
2022-09-23T23:20:38.099Z,7.50
2022-09-23T23:23:05.466Z,7.15
2022-09-23T23:25:36.620Z,7.93
2022-09-23T23:30:35.501Z,7.10
2022-09-23T23:33:02.825Z,6.28
2022-09-23T23:40:09.635Z,5.88
2022-09-23T23:42:37.135Z,5.78
2022-09-23T23:45:54.206Z,5.78
2022-09-23T23:48:21.599Z,4.90
2022-09-23T23:50:53.648Z,5.53
2022-09-23T23:53:25.176Z,6.20
2022-09-23T23:56:23.892Z,5.63
2022-09-23T23:58:56.413Z,5.00
